LICJ/PMO METAR and TAF weather

Enter ICAO airport designator
Station Type Date Time Source
LICJ METAR 2021/07/30 06:50 UTC NOAA

LICJ 300650Z 20016KT CAVOK 34/10 Q1012


Station Type Date Time Source
LICJ Decoded METAR 2021/07/30 06:50 UTC NOAA

Palermo / Punta Raisi, Italy (LICJ) 38-11N 013-06E 21M
Jul 30, 2021 - 02:50 AM EDT / 2021.07.30 0650 UTC
Wind: from the SSW (200 degrees) at 18 MPH (16 KT):0
Visibility: greater than 7 mile(s):0
Temperature: 93 F (34 C)
Dew Point: 50 F (10 C)
Relative Humidity: 23%
Pressure (altimeter): 29.88 in. Hg (1012 hPa)
ob: LICJ 300650Z 20016KT CAVOK 34/10 Q1012
cycle: 7

Station Type Date Time Source
LICJ TAF 2021/07/30 06:21 UTC NOAA

TAF LICJ 300500Z 3006/3106 19015KT CAVOK
BECMG 3011/3013 29014KT
BECMG 3016/3018 VRB05KT

Example: see airport list